Weather observations for the past three days for
Russell, Russell Municipal Airport
| Date | Time (cdt) | Wind (mph) | Vis. (mi.) | Weather | Sky Cond. | Temperature (ºF) | Relative Humidity | Wind Chill (°F) | Heat Index (°F) | Pressure | Precipitation (in) | ||||||
|---|---|---|---|---|---|---|---|---|---|---|---|---|---|---|---|---|---|
| Air | Dwpt | 6 hour | altimeter (in) | sea level (mb) | 1 hr | 3 hr | 6 hr | ||||||||||
| Max. | Min. | ||||||||||||||||
| 10 | 14:53 | Vrbl 5 | 10.00 | Fair | CLR | 64.9 | 33.1 | 31% | 30.21 | 1022.6 | |||||||
| 10 | 13:53 | E 3 | 10.00 | A Few Clouds | FEW090 | 64 | 32 | 30% | 30.22 | 1022.8 | |||||||
| 10 | 12:53 | N 5 | 10.00 | Fair | CLR | 64.9 | 34 | 64.9 | 50 | 32% | 30.24 | 1023.3 | |||||
| 10 | 11:53 | SE 6 | 10.00 | A Few Clouds | FEW100 | 61 | 33.1 | 35% | 30.24 | 1023.7 | |||||||
| 10 | 10:53 | E 6 | 10.00 | Overcast | OVC085 | 57 | 34 | 42% | 30.24 | 1023.6 | |||||||
| 10 | 09:53 | E 6 | 10.00 | Overcast | OVC090 | 55 | 35.1 | 47% | 30.22 | 1023.0 | |||||||
| 10 | 08:53 | NE 7 | 10.00 | Overcast | OVC100 | 53.1 | 37 | 55% | 30.2 | 1022.5 | |||||||
| 10 | 07:53 | NE 6 | 10.00 | Mostly Cloudy | BKN100 | 52 | 36 | 55% | 30.16 | 1021.0 | |||||||
| 10 | 06:53 | NE 8 | 10.00 | Fair | CLR | 50 | 36 | 60.1 | 50 | 59% | 47 | 30.13 | 1019.8 | ||||
| 10 | 05:53 | NE 7 | 10.00 | Partly Cloudy | SCT110 | 52 | 37 | 57% | 30.11 | 1019.0 | |||||||
| 10 | 04:53 | NE 10 | 10.00 | Fair | CLR | 52 | 39.9 | 64% | 30.09 | 1017.8 | |||||||
| 10 | 03:53 | E 12 | 10.00 | Overcast | FEW070 BKN090 OVC110 | 53.1 | 41 | 64% | 30.07 | 1017.2 | |||||||
| 10 | 02:53 | N 17 G 29 | 10.00 | Overcast | OVC090 | 57 | 39 | 51% | 30.08 | 1017.6 | |||||||
| 10 | 01:53 | NE 15 G 24 | 10.00 | Mostly Cloudy | BKN100 BKN120 | 59 | 39.9 | 49% | 30.04 | 1016.2 | |||||||
| 10 | 00:53 | NE 16 G 28 | 10.00 | Overcast | OVC090 | 60.1 | 43 | 69.1 | 57.9 | 53% | 30.02 | 1015.5 | |||||
| 09 | 23:53 | NE 14 | 10.00 | Mostly Cloudy | BKN100 | 59 | 44.1 | 58% | 29.98 | 1014.5 | |||||||
| 09 | 22:53 | NE 12 | 10.00 | Mostly Cloudy | BKN110 | 59 | 44.1 | 58% | 29.95 | 1013.5 | |||||||
| 09 | 21:53 | NE 9 | 10.00 | A Few Clouds | FEW120 | 61 | 45 | 56% | 29.91 | 1012.0 | |||||||
| 09 | 20:53 | E 13 | 10.00 | Mostly Cloudy | BKN100 | 64.9 | 44.1 | 47% | 29.87 | 1010.5 | |||||||
| 09 | 19:53 | E 13 | 10.00 | Partly Cloudy | SCT110 | 68 | 46 | 45% | 29.84 | 1009.7 | |||||||
| 09 | 18:53 | NE 21 | 9.00 | Light Rain and Breezy | FEW075 OVC095 | 69.1 | 48.9 | 80.1 | 69.1 | 49% | 29.81 | 1008.8 | |||||
| 09 | 17:53 | NE 18 | 10.00 | A Few Clouds | FEW110 | 75 | 46 | 36% | 77 | 29.75 | 1006.6 | ||||||
| 09 | 16:53 | NE 16 G 25 | 10.00 | Fair | CLR | 79 | 45 | 30% | 79 | 29.75 | 1006.6 | ||||||
| 09 | 15:53 | NE 10 | 10.00 | Mostly Cloudy | BKN120 | 78.1 | 46.9 | 33% | 78 | 29.79 | 1007.8 | ||||||
| 09 | 14:53 | E 5 | 10.00 | Overcast | OVC110 | 78.1 | 46.9 | 33% | 78 | 29.8 | 1008.2 | ||||||
| 09 | 13:53 | S 6 | 10.00 | Overcast | OVC110 | 73.9 | 48 | 40% | 29.81 | 1008.7 | |||||||
| 09 | 12:53 | SW 10 | 10.00 | Overcast | OVC110 | 71.1 | 48.9 | 71.1 | 48.9 | 46% | 29.84 | 1009.7 | |||||
| 09 | 11:53 | SW 10 | 10.00 | Partly Cloudy | SCT120 | 69.1 | 46 | 44% | 29.86 | 1010.4 | |||||||
| 09 | 10:53 | W 9 | 10.00 | Mostly Cloudy | FEW090 BKN110 | 64.9 | 46 | 51% | 29.87 | 1010.8 | |||||||
| 09 | 09:53 | W 17 G 25 | 10.00 | Mostly Cloudy | BKN120 | 63 | 44.1 | 50% | 29.86 | 1010.4 | |||||||
| 09 | 08:53 | SW 10 | 10.00 | Partly Cloudy | SCT120 | 61 | 44.1 | 54% | 29.85 | 1009.9 | |||||||
| 09 | 07:53 | SW 12 | 10.00 | A Few Clouds | FEW120 | 54 | 43 | 67% | 29.83 | 1009.4 | |||||||
| 09 | 06:53 | SW 12 | 10.00 | Fair | CLR | 48.9 | 41 | 52 | 48 | 74% | 45 | 29.82 | 1009.0 | ||||
| 09 | 05:53 | SW 12 | 10.00 | Fair | CLR | 50 | 41 | 71% | 46 | 29.81 | 1008.6 | ||||||
| 09 | 04:53 | SW 10 | 10.00 | Fair | CLR | 50 | 41 | 71% | 46 | 29.82 | 1008.8 | ||||||
| 09 | 03:53 | SW 9 | 10.00 | Fair | CLR | 50 | 41 | 71% | 47 | 29.82 | 1008.8 | ||||||
| 09 | 02:53 | SW 8 | 10.00 | Fair | CLR | 48.9 | 42.1 | 77% | 46 | 29.82 | 1009.0 | ||||||
| 09 | 01:53 | SW 6 | 10.00 | Fair | CLR | 48.9 | 41 | 74% | 47 | 29.83 | 1009.5 | ||||||
| 09 | 00:53 | SW 6 | 10.00 | Fair | CLR | 50 | 41 | 73.9 | 50 | 71% | 48 | 29.83 | 1009.6 | ||||
| 08 | 23:53 | SW 8 | 10.00 | Fair | CLR | 52 | 42.1 | 69% | 29.83 | 1009.4 | |||||||
| 08 | 22:53 | S 8 | 10.00 | Fair | CLR | 55.9 | 41 | 57% | 29.82 | 1009.2 | |||||||
| 08 | 21:53 | SW 8 | 10.00 | Fair | CLR | 61 | 39.9 | 46% | 29.81 | 1008.6 | |||||||
| 08 | 20:53 | SW 7 | 10.00 | Fair | CLR | 63 | 39 | 41% | 29.79 | 1008.1 | |||||||
| 08 | 19:53 | SW 5 | 10.00 | Fair | CLR | 72 | 41 | 33% | 29.78 | 1007.6 | |||||||
| 08 | 18:53 | NW 7 | 10.00 | Fair | CLR | 73.9 | 36 | 75.9 | 64.9 | 25% | 29.79 | 1007.7 | |||||
| 08 | 17:53 | NW 15 G 21 | 10.00 | Fair | CLR | 75.9 | 37.9 | 25% | 77 | 29.79 | 1007.7 | ||||||
| 08 | 16:53 | NW 14 | 10.00 | Fair | CLR | 75 | 37.9 | 26% | 77 | 29.8 | 1007.9 | ||||||
| 08 | 15:53 | N 9 | 10.00 | Fair | CLR | 75 | 37.9 | 26% | 77 | 29.81 | 1008.5 | ||||||
| 08 | 14:53 | N 9 | 10.00 | Fair | CLR | 73.9 | 41 | 31% | 29.82 | 1008.8 | |||||||
| 08 | 13:53 | NE 12 | 10.00 | Fair | CLR | 70 | 39.9 | 34% | 29.82 | 1008.9 | |||||||
| 08 | 12:53 | NE 16 G 24 | 10.00 | Partly Cloudy | SCT110 | 70 | 41 | 70 | 55.9 | 35% | 29.82 | 1009.1 | |||||
| 08 | 11:53 | N 15 | 10.00 | A Few Clouds | FEW100 | 68 | 42.1 | 39% | 29.83 | 1009.3 | |||||||
| 08 | 10:53 | NW 13 | 10.00 | Fair | CLR | 66 | 43 | 43% | 29.82 | 1008.9 | |||||||
| 08 | 09:53 | N 15 | 10.00 | Fair | CLR | 64 | 46.9 | 54% | 29.8 | 1008.3 | |||||||
| 08 | 08:53 | NW 5 | 10.00 | Fair | CLR | 60.1 | 48 | 65% | 29.8 | 1008.3 | |||||||
| 08 | 07:53 | NW 8 | 10.00 | Fair | CLR | 57 | 44.1 | 62% | 29.78 | 1007.4 | |||||||
| 08 | 06:53 | SW 6 | 10.00 | Fair | CLR | 55.9 | 41 | 62.1 | 54 | 57% | 29.79 | 1007.5 | |||||
| 08 | 05:53 | W 10 | 10.00 | Fair | CLR | 59 | 39 | 48% | 29.78 | 1007.3 | |||||||
| 08 | 04:53 | W 16 | 10.00 | Fair | CLR | 62.1 | 37.9 | 41% | 29.78 | 1006.9 | |||||||
| 08 | 03:53 | S 15 | 10.00 | Fair | CLR | 55.9 | 39.9 | 55% | 29.76 | 1006.7 | |||||||
| 08 | 02:53 | SW 8 | 10.00 | A Few Clouds | FEW120 | 57 | 41 | 55% | 29.78 | 1007.3 | |||||||
| 08 | 01:53 | S 9 | 10.00 | Fair | CLR | 55 | 44.1 | 67% | 29.78 | 1007.6 | |||||||
| 08 | 00:53 | SE 9 | 10.00 | Fair | CLR | 57.9 | 43 | 77 | 57.9 | 58% | 29.79 | 1008.0 | |||||
| 07 | 23:53 | SW 7 | 10.00 | Partly Cloudy | SCT110 | 59 | 44.1 | 58% | 29.81 | 1008.6 | |||||||
| 07 | 22:53 | SE 7 | 10.00 | Mostly Cloudy | FEW090 BKN110 | 64 | 42.1 | 45% | 29.8 | 1008.5 | |||||||
| 07 | 21:53 | E 7 | 10.00 | Partly Cloudy | SCT120 | 64 | 43 | 46% | 29.8 | 1008.5 | |||||||
| 07 | 20:53 | E 7 | 10.00 | Fair | CLR | 68 | 39.9 | 36% | 29.78 | 1008.0 | |||||||
| 07 | 19:53 | W 5 | 10.00 | Fair | CLR | 72 | 42.1 | 34% | 29.77 | 1007.6 | |||||||
| 07 | 18:53 | W 10 | 10.00 | Fair | CLR | 77 | 37 | 79 | 70 | 24% | 77 | 29.77 | 1007.7 | ||||
| 07 | 17:53 | W 13 | 10.00 | Fair | CLR | 77 | 37 | 24% | 77 | 29.78 | 1007.9 | ||||||
| 07 | 16:53 | W 14 | 10.00 | Fair | CLR | 78.1 | 37 | 23% | 78 | 29.79 | 1008.4 | ||||||
| 07 | 15:53 | W 22 G 28 | 10.00 | Fair and Breezy | CLR | 79 | 36 | 21% | 78 | 29.81 | 1008.9 | ||||||
| Date | Time (cdt) | Wind (mph) | Vis. (mi.) | Weather | Sky Cond. | Air | Dwpt | Max. | Min. | Relative Humidity | Wind Chill (°F) | Heat Index (°F) | altimeter (in) | sea level (mb) | 1 hr | 3 hr | 6 hr |
| 6 hour | |||||||||||||||||
| Temperature (ºF) | Pressure | Precipitation (in) | |||||||||||||||